Flight Track Log - Related Links

Times and Time Zones

All times are in EDT time to prevent confusion due to time zone crossing. See the AWE1198 flight status page for this flight to view local times or setup timezone preferences in your user account.

Time Position Orientation Groundspeed Altitude Reporting Facility
EDT Latitude Longitude Course Direction KTS MPH feet Rate Location/Type
Sat 01:55:58 AM 33.4333 -111.9833 90° East 181 208 1,900  Level Phoenix TRACON
Sat 01:57:10 AM 33.4333 -111.9000 90° East 193 222 3,400 952 Climbing Phoenix TRACON
Sat 01:58:04 AM 33.4500 -111.8500 68° East 227 261 3,900 632 Climbing Phoenix TRACON
Sat 01:59:04 AM 33.5000 -111.7667 54° Northeast 278 320 4,600 1,182 Climbing Phoenix TRACON
Sat 02:00:21 AM 33.5397 -111.6672 64° Northeast 291 335 6,600 1,565 Climbing Albuquerque Center
Sat 02:01:22 AM 33.5731 -111.5797 65° Northeast 292 336 8,200 1,587 Climbing Albuquerque Center
Sat 02:02:22 AM 33.6056 -111.4903 66° East 294 338 9,800 1,350 Climbing Albuquerque Center
Sat 02:03:22 AM 33.6397 -111.3989 66° East 303 349 10,900 850 Climbing Albuquerque Center
Sat 02:04:22 AM 33.6772 -111.2983 66° East 329 379 11,500 595 Climbing Albuquerque Center
Sat 02:05:23 AM 33.7172 -111.1856 67° East 364 419 12,100 942 Climbing Albuquerque Center
Sat 02:06:23 AM 33.7592 -111.0681 67° East 382 440 13,400 1,250 Climbing Albuquerque Center
Sat 02:07:23 AM 33.8025 -110.9469 67° East 394 453 14,600 1,200 Climbing Albuquerque Center
Sat 02:08:23 AM 33.8494 -110.8269 65° Northeast 398 458 15,800 1,050 Climbing Albuquerque Center
Sat 02:09:23 AM 33.9156 -110.7172 54° Northeast 404 465 16,700 1,240 Climbing Albuquerque Center
Sat 02:10:24 AM 33.9811 -110.6072 54° Northeast 406 467 18,300 1,488 Climbing Albuquerque Center
Sat 02:11:24 AM 34.0447 -110.4989 55° Northeast 400 460 19,700 950 Climbing Albuquerque Center
Sat 02:12:24 AM 34.0806 -110.3719 71° East 402 463 20,200 1,000 Climbing Albuquerque Center
Sat 02:13:24 AM 34.1231 -110.2258 71° East 413 475 21,700 1,190 Climbing Albuquerque Center
Sat 02:14:25 AM 34.1583 -110.1028 71° East 408 470 22,600 893 Climbing Albuquerque Center
Sat 02:15:25 AM 34.1933 -109.9772 71° East 411 473 23,500 750 Climbing Albuquerque Center
Sat 02:16:25 AM 34.2353 -109.8317 71° East 413 475 24,100 500 Climbing Albuquerque Center
Sat 02:17:25 AM 34.2717 -109.6981 72° East 430 495 24,500 347 Climbing Albuquerque Center
Sat 02:18:26 AM 34.3094 -109.5603 72° East 444 511 24,800 298 Climbing Albuquerque Center
Sat 02:19:26 AM 34.3478 -109.4208 72° East 454 522 25,100 400 Climbing Albuquerque Center
Sat 02:20:26 AM 34.3956 -109.2556 71° East 463 533 25,600 450 Climbing Albuquerque Center
Sat 02:21:26 AM 34.4336 -109.1089 72° East 471 542 26,000 397 Climbing Albuquerque Center
Sat 02:22:27 AM 34.4750 -108.9639 71° East 476 548 26,400 595 Climbing Albuquerque Center
Sat 02:23:27 AM 34.5222 -108.7931 71° East 479 551 27,200 650 Climbing Albuquerque Center
Sat 02:24:27 AM 34.5608 -108.6464 72° East 478 550 27,700 843 Climbing Albuquerque Center
Sat 02:25:28 AM 34.6008 -108.5017 71° East 476 548 28,900 793 Climbing Albuquerque Center
Sat 02:26:28 AM 34.6439 -108.3444 72° East 462 532 29,300 350 Climbing Albuquerque Center
Sat 02:27:28 AM 34.6839 -108.1958 72° East 460 529 29,600 250 Climbing Albuquerque Center
Sat 02:28:28 AM 34.7236 -108.0464 72° East 464 534 29,800 496 Climbing Albuquerque Center
Sat 02:29:29 AM 34.7644 -107.8969 72° East 466 536 30,600 595 Climbing Albuquerque Center
Sat 02:30:29 AM 34.7764 -107.7447 85° East 459 528 31,000 200 Climbing Albuquerque Center
Sat 02:31:29 AM 34.7678 -107.5894 94° East 460 529 31,000  Level Albuquerque Center
Sat 02:32:29 AM 34.7969 -107.4431 76° East 456 525 31,000  Level Albuquerque Center
Sat 02:33:30 AM 34.8450 -107.2992 68° East 458 527 31,000  Level Albuquerque Center
Sat 02:34:30 AM 34.8947 -107.1525 68° East 462 532 31,000  Level Albuquerque Center
Sat 02:35:30 AM 34.9417 -107.0133 68° East 465 535 31,000  Level Albuquerque Center
Sat 02:36:30 AM 34.9867 -106.8736 69° East 464 534 31,000  Level Albuquerque Center
Sat 02:37:31 AM 35.0397 -106.7128 68° East 460 529 31,000  Level Albuquerque Center
Sat 02:38:31 AM 35.0861 -106.5700 68° East 467 537 31,000  Level Albuquerque Center
Sat 02:39:31 AM 35.1306 -106.4322 68° East 474 545 31,000  Level Albuquerque Center
Sat 02:40:31 AM 35.1775 -106.2864 68° East 465 535 31,000  Level Albuquerque Center
Sat 02:41:32 AM 35.2317 -106.1158 69° East 459 528 31,000  Level Albuquerque Center
Sat 02:42:32 AM 35.2717 -105.9914 68° East 465 535 31,000  Level Albuquerque Center
Sat 02:43:32 AM 35.3206 -105.8411 68° East 472 543 31,000  Level Albuquerque Center
Sat 02:44:32 AM 35.3711 -105.6883 68° East 477 549 31,000 50 Level Albuquerque Center
Sat 02:45:33 AM 35.4169 -105.5375 70° East 472 543 31,100  Climbing Albuquerque Center
Sat 02:46:33 AM 35.4642 -105.3878 69° East 467 537 31,000 -50 Descending Albuquerque Center
Sat 02:47:33 AM 35.5094 -105.2383 70° East 465 535 31,000  Level Albuquerque Center
Sat 02:48:33 AM 35.5578 -105.0875 68° East 468 539 31,000  Level Albuquerque Center
Sat 02:49:34 AM 35.6039 -104.9369 69° East 467 537 31,000  Level Albuquerque Center
Sat 02:50:34 AM 35.6506 -104.7847 69° East 468 539 31,000  Level Albuquerque Center
Sat 02:51:34 AM 35.6981 -104.6328 69° East 469 540 31,000 50 Level Albuquerque Center
Sat 02:52:34 AM 35.7436 -104.4800 70° East 469 540 31,100  Climbing Albuquerque Center
Sat 02:53:35 AM 35.7906 -104.3272 69° East 469 540 31,000 -50 Descending Albuquerque Center
Sat 02:54:35 AM 35.8369 -104.1753 69° East 468 539 31,000  Level Albuquerque Center
Sat 02:55:35 AM 35.8817 -104.0236 70° East 466 536 31,000  Level Albuquerque Center
Sat 02:56:35 AM 35.9272 -103.8728 70° East 465 535 31,000  Level Albuquerque Center
Sat 02:57:36 AM 35.9728 -103.7197 70° East 468 539 31,000  Level Albuquerque Center
Sat 02:58:36 AM 36.0178 -103.5672 70° East 467 537 31,000  Level Albuquerque Center
Sat 02:59:36 AM 36.0617 -103.4153 70° East 466 536 31,000  Level Albuquerque Center
Sat 03:00:50 AM 36.1133 -103.2369 70° East 467 537 31,000 45 Level Albuquerque Center
Sat 03:01:50 AM 36.1578 -103.0847 70° East 467 537 31,100 250 Climbing Albuquerque Center
Sat 03:02:50 AM 36.2006 -102.9356 70° East 460 529 31,500 450 Climbing Albuquerque Center
Sat 03:03:50 AM 36.2431 -102.7900 70° East 452 520 32,000 347 Climbing Albuquerque Center
Sat 03:04:51 AM 36.2847 -102.6428 71° East 452 520 32,200 298 Climbing Albuquerque Center
Sat 03:05:51 AM 36.3431 -102.5050 62° Northeast 452 520 32,600 400 Climbing Albuquerque Center
Sat 03:06:51 AM 36.4131 -102.3733 57° Northeast 454 522 33,000 200 Climbing Albuquerque Center
Sat 03:07:51 AM 36.4883 -102.2472 53° Northeast 454 522 33,000 30 Level Albuquerque Center
Sat 03:10:08 AM 36.6625 -101.9547 53° Northeast 467 537 33,100  Climbing Kansas City Center
Sat 03:11:08 AM 36.7356 -101.8292 54° Northeast 467 537 33,000 -50 Descending Kansas City Center
Sat 03:12:08 AM 36.7900 -101.6919 64° Northeast 462 532 33,000  Level Kansas City Center
Sat 03:13:08 AM 36.8350 -101.5175 72° East 470 541 33,000  Level Kansas City Center
Sat 03:14:09 AM 36.8733 -101.3678 72° East 474 545 33,000 50 Level Kansas City Center
Sat 03:15:09 AM 36.9122 -101.2197 72° East 473 544 33,100  Climbing Kansas City Center
Sat 03:16:09 AM 36.9572 -101.0453 72° East 473 544 33,000 -50 Descending Kansas City Center
Sat 03:17:09 AM 36.9947 -100.8978 72° East 471 542 33,000  Level Kansas City Center
Sat 03:18:09 AM 37.0328 -100.7478 72° East 473 544 33,000  Level Kansas City Center
Sat 03:19:09 AM 37.0761 -100.5758 72° East 469 540 33,000 50 Level Kansas City Center
Sat 03:20:10 AM 37.1139 -100.4269 72° East 470 541 33,100  Climbing Kansas City Center
Sat 03:21:10 AM 37.1506 -100.2794 73° East 468 539 33,000 -50 Descending Kansas City Center
Sat 03:22:10 AM 37.1864 -100.1325 73° East 465 535 33,000  Level Kansas City Center
Sat 03:23:10 AM 37.2283 -99.9614 73° East 462 532 33,000  Level Kansas City Center
Sat 03:24:10 AM 37.2656 -99.8119 73° East 467 537 33,000 50 Level Kansas City Center
Sat 03:25:11 AM 37.3028 -99.6614 73° East 471 542 33,100  Climbing Kansas City Center
Sat 03:26:11 AM 37.3433 -99.4889 73° East 467 537 33,000 -50 Descending Kansas City Center
Sat 03:27:11 AM 37.3819 -99.3372 72° East 472 543 33,000  Level Kansas City Center
Sat 03:28:11 AM 37.4186 -99.1814 73° East 467 537 33,000  Level Kansas City Center
Sat 03:29:11 AM 37.4533 -99.0253 74° East 464 534 33,000  Level Kansas City Center
Sat 03:30:12 AM 37.4906 -98.8697 73° East 464 534 33,000  Level Kansas City Center
Sat 03:31:12 AM 37.5261 -98.7156 74° East 461 531 33,000  Level Kansas City Center
Sat 03:32:12 AM 37.5628 -98.5611 73° East 461 531 33,000  Level Kansas City Center
Sat 03:33:12 AM 37.5986 -98.4089 73° East 458 527 33,000  Level Kansas City Center
Sat 03:34:12 AM 37.6275 -98.2861 73° East 457 526 33,000  Level Kansas City Center
Sat 03:35:13 AM 37.6683 -98.1014 74° East 454 522 33,000  Level Kansas City Center
Sat 03:36:13 AM 37.7017 -97.9481 75° East 452 520 33,000  Level Kansas City Center
Sat 03:37:13 AM 37.7361 -97.7917 74° East 458 527 33,000  Level Kansas City Center
Sat 03:38:13 AM 37.7711 -97.6358 74° East 460 529 33,000  Level Kansas City Center
Sat 03:39:13 AM 37.8058 -97.4808 74° East 458 527 33,000  Level Kansas City Center
Sat 03:40:14 AM 37.8389 -97.3411 73° East 458 527 33,000  Level Kansas City Center
Sat 03:41:14 AM 37.8728 -97.1858 75° East 458 527 33,000  Level Kansas City Center
Sat 03:42:14 AM 37.9064 -97.0311 75° East 457 526 33,000  Level Kansas City Center
Sat 03:43:14 AM 37.9406 -96.8769 74° East 456 525 33,000  Level Kansas City Center
Sat 03:44:14 AM 37.9736 -96.7222 75° East 455 524 33,000  Level Kansas City Center
Sat 03:45:15 AM 38.0061 -96.5686 75° East 452 520 33,000  Level Kansas City Center
Sat 03:46:15 AM 38.0389 -96.4172 75° East 448 516 33,000  Level Kansas City Center
Sat 03:47:15 AM 38.0711 -96.2608 75° East 449 517 33,000  Level Kansas City Center
Sat 03:48:15 AM 38.1056 -96.0983 75° East 447 514 33,000  Level Kansas City Center
Sat 03:49:15 AM 38.1356 -95.9522 75° East 447 514 33,000  Level Kansas City Center
Sat 03:50:16 AM 38.1708 -95.7797 75° East 452 520 33,000  Level Kansas City Center
Sat 03:51:16 AM 38.2003 -95.6333 76° East 450 518 33,000  Level Kansas City Center
Sat 03:52:16 AM 38.2308 -95.4881 75° East 447 514 33,000 250 Level Kansas City Center
Sat 03:53:16 AM 38.2603 -95.3444 75° East 443 510 33,500 496 Climbing Kansas City Center
Sat 03:54:17 AM 38.2942 -95.1750 76° East 442 509 34,000 248 Climbing Kansas City Center
Sat 03:55:17 AM 38.3231 -95.0272 76° East 446 513 34,000  Level Kansas City Center
Sat 03:56:17 AM 38.3511 -94.8814 76° East 446 513 34,000  Level Kansas City Center
Sat 03:57:17 AM 38.3839 -94.7136 76° East 440 506 34,000  Level Kansas City Center
Sat 03:58:18 AM 38.4128 -94.5697 76° East 439 505 34,000  Level Kansas City Center
Sat 03:59:18 AM 38.4394 -94.4253 77° East 440 506 34,000  Level Kansas City Center
Sat 04:00:18 AM 38.4719 -94.2564 76° East 440 506 34,000  Level Kansas City Center
Sat 04:01:19 AM 38.4997 -94.1100 76° East 442 509 34,000  Level Kansas City Center
Sat 04:02:19 AM 38.5256 -93.9667 77° East 438 504 34,000  Level Kansas City Center
Sat 04:03:19 AM 38.5539 -93.8206 76° East 440 506 34,000  Level Kansas City Center
Sat 04:04:19 AM 38.5850 -93.6497 77° East 435 501 34,000  Level Kansas City Center
Sat 04:05:20 AM 38.6128 -93.4989 77° East 434 499 34,000  Level Kansas City Center
Sat 04:06:20 AM 38.6422 -93.3481 76° East 435 501 34,000  Level Kansas City Center
Sat 04:07:20 AM 38.6689 -93.1975 77° East 432 497 34,000  Level Kansas City Center
Sat 04:08:21 AM 38.6964 -93.0456 77° East 434 499 34,000  Level Kansas City Center
Sat 04:09:21 AM 38.7228 -92.8958 77° East 433 498 34,000  Level Kansas City Center
Sat 04:10:21 AM 38.7492 -92.7461 77° East 431 496 34,000  Level Kansas City Center
Sat 04:11:22 AM 38.7753 -92.5972 77° East 428 493 34,000  Level Kansas City Center
Sat 04:12:22 AM 38.7956 -92.4772 78° East 427 491 34,000  Level Kansas City Center
Sat 04:13:22 AM 38.8217 -92.3267 77° East 428 493 34,000  Level Kansas City Center
Sat 04:14:22 AM 38.8478 -92.1714 78° East 436 502 34,000  Level Kansas City Center
Sat 04:15:23 AM 38.8728 -92.0206 78° East 433 498 34,000  Level Kansas City Center
Sat 04:16:23 AM 38.8981 -91.8708 78° East 429 494 34,000  Level Kansas City Center
Sat 04:17:23 AM 38.9275 -91.6986 78° East 429 494 34,000  Level Kansas City Center
Sat 04:18:24 AM 38.9511 -91.5506 78° East 426 490 34,000  Level Kansas City Center
Sat 04:19:24 AM 38.9758 -91.4019 78° East 426 490 34,000  Level Kansas City Center
Sat 04:20:24 AM 39.0003 -91.2514 78° East 428 493 34,000 -50 Level Kansas City Center
Sat 04:21:25 AM 39.0250 -91.0997 78° East 431 496 33,900  Descending Kansas City Center
Sat 04:22:25 AM 39.0503 -90.9453 78° East 438 504 34,000 50 Climbing Kansas City Center
Sat 04:23:25 AM 39.0756 -90.7858 78° East 448 516 34,000 50 Level Kansas City Center
Sat 04:24:26 AM 39.1014 -90.6236 78° East 457 526 34,100 50 Climbing Kansas City Center
Sat 04:25:26 AM 39.1272 -90.4597 78° East 462 532 34,100 400 Level Kansas City Center
Sat 04:26:26 AM 39.1517 -90.2967 79° East 462 532 34,900 450 Climbing Kansas City Center
Sat 04:27:26 AM 39.1756 -90.1364 79° East 456 525 35,000 50 Climbing Kansas City Center
Sat 04:28:27 AM 39.1989 -89.9794 79° East 449 517 35,000  Level Kansas City Center
Sat 04:29:27 AM 39.2231 -89.8200 79° East 449 517 35,000  Level Kansas City Center
Sat 04:30:27 AM 39.2467 -89.6564 79° East 458 527 35,000 50 Level Kansas City Center
Sat 04:31:28 AM 39.2708 -89.4928 79° East 463 533 35,100  Climbing Kansas City Center
Sat 04:32:28 AM 39.2950 -89.3278 79° East 466 536 35,000 -50 Descending Kansas City Center
Sat 04:33:28 AM 39.3183 -89.1644 79° East 466 536 35,000  Level Kansas City Center
Sat 04:34:29 AM 39.3408 -89.0000 80° East 465 535 35,000  Level Kansas City Center
Sat 04:35:29 AM 39.3675 -88.8400 78° East 459 528 35,000  Level Kansas City Center
Sat 04:36:29 AM 39.3892 -88.6797 80° East 455 524 35,000  Level Kansas City Center
Sat 04:37:29 AM 39.4094 -88.5117 81° East 452 520 35,000 -50 Level Kansas City Center
Sat 04:38:30 AM 39.4311 -88.3503 80° East 451 519 34,900  Descending Kansas City Center
Sat 04:39:30 AM 39.4542 -88.1869 80° East 456 525 35,000 50 Climbing Kansas City Center
Sat 04:40:30 AM 39.4725 -88.0528 80° East 462 532 35,000 50 Level Kansas City Center
Sat 04:41:31 AM 39.4947 -87.8844 80° East 467 537 35,100  Climbing Kansas City Center
Sat 04:42:31 AM 39.5169 -87.7147 80° East 471 542 35,000 -50 Descending Kansas City Center
Sat 04:43:31 AM 39.5381 -87.5458 81° East 472 543 35,000  Level Kansas City Center
Sat 04:44:26 AM 39.5572 -87.3908 81° East 471 542 35,000  Level Indianapolis Center
Sat 04:45:26 AM 39.5789 -87.2233 80° East 473 544 35,000  Level Indianapolis Center
Sat 04:46:26 AM 39.6000 -87.0531 81° East 479 551 35,000  Level Indianapolis Center
Sat 04:47:27 AM 39.6208 -86.8822 81° East 482 555 35,000  Level Indianapolis Center
Sat 04:48:27 AM 39.6419 -86.7114 81° East 484 557 35,000  Level Indianapolis Center
Sat 04:49:27 AM 39.6625 -86.5400 81° East 483 556 35,000  Level Indianapolis Center
Sat 04:50:27 AM 39.6856 -86.3447 81° East 488 562 35,000  Level Indianapolis Center
Sat 04:51:28 AM 39.7056 -86.1694 82° East 489 563 35,000  Level Indianapolis Center
Sat 04:52:28 AM 39.7258 -85.9986 81° East 488 562 35,000  Level Indianapolis Center
Sat 04:53:28 AM 39.7450 -85.8264 82° East 486 559 35,000  Level Indianapolis Center
Sat 04:54:29 AM 39.7644 -85.6550 82° East 485 558 35,000  Level Indianapolis Center
Sat 04:55:29 AM 39.7833 -85.4814 82° East 487 560 35,000  Level Indianapolis Center
Sat 04:56:29 AM 39.8022 -85.3050 82° East 493 567 35,000  Level Indianapolis Center
Sat 04:57:29 AM 39.8208 -85.1269 82° East 498 573 35,000  Level Indianapolis Center
Sat 04:58:30 AM 39.8414 -84.9489 81° East 501 577 35,000  Level Indianapolis Center
Sat 04:59:30 AM 39.8597 -84.7644 83° East 496 571 35,000 -50 Level Indianapolis Center
Sat 05:00:30 AM 39.8781 -84.5844 82° East 497 572 34,900  Descending Indianapolis Center
Sat 05:01:31 AM 39.8964 -84.4056 82° East 496 571 35,000 50 Climbing Indianapolis Center
Sat 05:02:31 AM 39.9133 -84.2275 83° East 492 566 35,000 -50 Level Indianapolis Center
Sat 05:03:32 AM 39.9308 -84.0489 83° East 492 566 34,900 -50 Descending Indianapolis Center
Sat 05:04:32 AM 39.9483 -83.8703 83° East 491 565 34,900 50 Level Indianapolis Center
Sat 05:05:32 AM 39.9658 -83.6922 83° East 488 562 35,000 50 Climbing Indianapolis Center
Sat 05:06:33 AM 39.9839 -83.5097 83° East 491 565 35,000  Level Indianapolis Center
Sat 05:07:33 AM 40.0000 -83.3253 83° East 496 571 35,000  Level Indianapolis Center
Sat 05:08:34 AM 40.0125 -83.1756 84° East 492 566 35,000 -50 Level Indianapolis Center
Sat 05:09:34 AM 40.0283 -82.9958 83° East 492 566 34,900  Descending Indianapolis Center
Sat 05:10:34 AM 40.0444 -82.8161 83° East 493 567 35,000 50 Climbing Indianapolis Center
Sat 05:11:35 AM 40.0589 -82.6364 84° East 494 568 35,000  Level Indianapolis Center
Sat 05:12:35 AM 40.0747 -82.4572 83° East 493 567 35,000  Level Indianapolis Center
Sat 05:13:36 AM 40.0892 -82.2783 84° East 492 566 35,000  Level Indianapolis Center
Sat 05:14:36 AM 40.1036 -82.0978 84° East 494 568 35,000  Level Indianapolis Center
Sat 05:15:37 AM 40.1178 -81.9178 84° East 495 570 35,000  Level Indianapolis Center
Sat 05:16:37 AM 40.1264 -81.7389 86° East 495 570 35,000  Level Indianapolis Center
Sat 05:17:38 AM 40.1292 -81.5603 89° East 493 567 35,000  Level Indianapolis Center
Sat 05:18:38 AM 40.1314 -81.3822 89° East 490 564 35,000  Level Indianapolis Center
Sat 05:19:39 AM 40.1344 -81.2011 89° East 494 568 35,000  Level Indianapolis Center
Sat 05:20:23 AM 40.1414 -81.0475 87° East 492 566 35,000  Level Cleveland Center
Sat 05:21:23 AM 40.1419 -80.8708 90° East 492 566 35,000  Level Cleveland Center
Sat 05:22:23 AM 40.1442 -80.6944 89° East 487 560 35,000  Level Cleveland Center
Sat 05:23:23 AM 40.1442 -80.5178 90° East 487 560 35,000  Level Cleveland Center
Sat 05:24:23 AM 40.1442 -80.3414 90° East 487 560 35,000  Level Cleveland Center
Sat 05:25:23 AM 40.1456 -80.1622 89° East 487 560 35,000  Level Cleveland Center
Sat 05:26:23 AM 40.1469 -79.9856 89° East 482 555 35,000  Level Cleveland Center
Sat 05:27:23 AM 40.1458 -79.8253 90° East 482 555 35,000  Level Cleveland Center
Sat 05:28:23 AM 40.1489 -79.6542 89° East 477 549 35,000  Level Cleveland Center
Sat 05:29:24 AM 40.1472 -79.4803 91° East 477 549 35,000  Level Cleveland Center
Sat 05:30:24 AM 40.1433 -79.2875 91° East 477 549 35,000  Level Cleveland Center
Sat 05:31:23 AM 40.1433 -79.1164 90° East 477 549 35,000  Level Cleveland Center
Sat 05:32:24 AM 40.1428 -78.9400 90° East 477 549 35,000  Level Cleveland Center
Sat 05:33:23 AM 40.1422 -78.7661 90° East 477 549 35,000  Level Cleveland Center
Sat 05:34:23 AM 40.1417 -78.6086 90° East 477 549 35,000  Level Cleveland Center
Sat 05:36:04 AM 40.1369 -78.3197 91° East 501 577 35,000  Level New York Center
Sat 05:37:05 AM 40.1353 -78.1458 91° East 489 563 35,000  Level New York Center
Sat 05:38:06 AM 40.1333 -77.9772 91° East 478 550 35,000  Level New York Center
Sat 05:39:03 AM 40.1322 -77.7869 90° East 473 544 35,000 -700 Level New York Center
Sat 05:40:06 AM 40.1275 -77.6153 92° East 473 544 33,600 -2,262 Descending New York Center
Sat 05:41:05 AM 40.1250 -77.4411 91° East 473 544 30,400 -2,521 Descending New York Center
Sat 05:42:05 AM 40.1222 -77.3053 91° East 478 550 28,600 -2,237 Descending New York Center
Sat 05:43:03 AM 40.1186 -77.1067 91° East 468 539 26,000 -2,370 Descending New York Center
Sat 05:44:04 AM 40.1167 -76.9436 91° East 458 527 23,900 -2,050 Descending New York Center
Sat 05:45:03 AM 40.1122 -76.7858 92° East 447 514 21,900 -2,017 Descending New York Center
Sat 05:46:03 AM 40.1078 -76.6278 92° East 442 509 19,900 -1,950 Descending New York Center
Sat 05:47:03 AM 40.1028 -76.4728 92° East 442 509 18,000 -1,750 Descending New York Center
Sat 05:48:03 AM 40.1011 -76.3369 91° East 419 482 16,400 -1,800 Descending New York Center
Sat 05:49:03 AM 40.0958 -76.1789 92° East 401 461 14,400 -1,900 Descending New York Center
Sat 05:50:03 AM 40.0919 -76.0375 92° East 391 450 12,600 -1,650 Descending New York Center
Sat 05:51:03 AM 40.0875 -75.9017 92° East 386 444 11,100 -1,033 Descending New York Center
Sat 05:52:05 AM 40.0817 -75.7925 94° East 355 409 10,500 -1,050 Descending New York Center
Sat 05:53:03 AM 40.0828 -75.6653 89° East 325 374 9,000 -1,475 Descending New York Center
Sat 05:54:03 AM 40.0869 -75.5650 87° East 309 356 7,600 -1,426 Descending New York Center
Sat 05:55:05 AM 40.0625 -75.4494 105° East 298 343 6,100 -1,171 Descending New York Center
Sat 05:56:06 AM 40.0411 -75.3558 107° East 298 343 5,200 -756 Descending New York Center
Sat 05:57:04 AM 40.0194 -75.2650 107° East 285 328 4,600 -605 Descending New York Center
Sat 05:58:05 AM 39.9919 -75.1711 111° Southeast 256 295 4,000 -590 Descending New York Center

Login

Don't have an account? Register now (free) for customized features, flight alerts, and more!